Terminal Aerodrome Forecast
Issued by NWS

Home | Current Version | Previous Version | Text Only | Print | Product List | Glossary On
Versions: 1 2 3 4 5 6 7 8 9 10 11 12 13 14
006
FTUS46 KHNX 020148 AAB
TAFVIS
TAF AMD
KVIS 020148Z 0202/0224 25020G35KT 3SM BLDU VCSH BKN100
      TEMPO 0202/0204 -SHRA SCT025 BKN050
     FM020500 VRB03KT P6SM SCT060
     FM020600 29006KT P6SM SKC=

USA.gov is the U.S. government's official web portal to all federal, state and local government web resources and services.